Gilcrest, Colorado
Current Conditions -  °F | °C
As of 1:35 AM on Sunday 23 Nov 2014 (Local Time) from KGXY Reporting Station
Few Clouds Few Clouds  
Wind Chill:   Ceiling: Unl
Heat Index:   Visibility: 10mi
Dew Point: -4°   Wind: 28mph
Humidity: 46%   Direction: 350°N
Pressure: 29.59"   Gusts: 35mph
Location:  40.28°N, 104.78°W
Report Text: KGXY 230835Z AUTO 35024G30KT 10SM FEW100 07/M04 A2959 RMK AO1
Loading
Personal Weather Stations






























Interactive Weather Map New forecast layout! Learn more

10-Day Weather Forecast

Advertisements
Track Severe Weather on mobile